createdAt,value
2022-10-08T00:01:16.567Z,100.00
2022-10-08T00:04:03.499Z,100.00
2022-10-08T00:06:32.161Z,100.00
2022-10-08T00:09:04.870Z,100.00
2022-10-08T00:11:34.557Z,100.00
2022-10-08T00:14:02.237Z,100.00
2022-10-08T00:16:38.578Z,100.00
2022-10-08T00:19:08.693Z,100.00
2022-10-08T00:21:37.307Z,100.00
2022-10-08T00:24:06.345Z,100.00
2022-10-08T00:26:38.558Z,100.00
2022-10-08T00:29:09.883Z,100.00
2022-10-08T00:31:40.572Z,100.00
2022-10-08T00:34:12.854Z,100.00
2022-10-08T00:36:40.897Z,100.00
2022-10-08T00:39:11.743Z,100.00
2022-10-08T00:41:39.401Z,100.00
2022-10-08T00:44:43.846Z,100.00
2022-10-08T00:47:24.882Z,100.00
2022-10-08T00:49:55.656Z,100.00
2022-10-08T00:52:23.871Z,100.00
2022-10-08T00:54:51.566Z,100.00
2022-10-08T00:57:20.385Z,100.00
2022-10-08T00:59:47.469Z,100.00
2022-10-08T01:02:15.247Z,100.00
2022-10-08T01:04:43.204Z,100.00
2022-10-08T01:07:23.057Z,100.00
2022-10-08T01:10:11.299Z,100.00
2022-10-08T01:12:47.844Z,100.00
2022-10-08T01:15:40.892Z,100.00
2022-10-08T01:18:12.524Z,100.00
2022-10-08T01:20:51.719Z,100.00
2022-10-08T01:23:37.618Z,100.00
2022-10-08T01:26:52.108Z,100.00
2022-10-08T01:29:25.455Z,100.00
2022-10-08T01:32:03.520Z,100.00
2022-10-08T01:34:37.280Z,100.00
2022-10-08T01:37:10.056Z,100.00
2022-10-08T01:39:38.847Z,100.00
2022-10-08T01:42:08.076Z,100.00
2022-10-08T01:44:50.328Z,100.00
2022-10-08T01:47:20.760Z,100.00
2022-10-08T01:49:56.813Z,100.00
2022-10-08T01:52:27.759Z,100.00
2022-10-08T01:55:00.784Z,100.00
2022-10-08T01:57:29.236Z,100.00
2022-10-08T02:00:03.341Z,100.00
2022-10-08T02:02:39.570Z,100.00
2022-10-08T02:05:07.132Z,100.00
2022-10-08T02:07:37.478Z,100.00
2022-10-08T02:10:19.304Z,100.00
2022-10-08T02:12:46.583Z,100.00
2022-10-08T02:15:17.545Z,100.00
2022-10-08T02:18:10.839Z,100.00
2022-10-08T02:20:53.639Z,100.00
2022-10-08T02:23:24.683Z,100.00
2022-10-08T02:25:55.338Z,100.00
2022-10-08T02:28:46.630Z,100.00
2022-10-08T02:31:31.886Z,100.00
2022-10-08T02:34:09.242Z,100.00
2022-10-08T02:36:39.396Z,100.00
2022-10-08T02:39:06.607Z,100.00
2022-10-08T02:41:53.906Z,100.00
2022-10-08T02:44:24.771Z,100.00
2022-10-08T02:46:54.296Z,100.00
2022-10-08T02:49:26.237Z,100.00
2022-10-08T02:51:54.981Z,100.00
2022-10-08T02:54:23.790Z,100.00
2022-10-08T02:57:22.174Z,100.00
2022-10-08T02:59:51.416Z,100.00
2022-10-08T03:02:27.869Z,100.00
2022-10-08T03:04:59.487Z,100.00
2022-10-08T03:07:31.200Z,100.00
2022-10-08T03:09:59.472Z,100.00
2022-10-08T03:12:26.725Z,100.00
2022-10-08T03:14:54.047Z,100.00
2022-10-08T03:17:42.474Z,100.00
2022-10-08T03:20:10.428Z,100.00
2022-10-08T03:22:38.150Z,100.00
2022-10-08T03:25:05.585Z,100.00
2022-10-08T03:27:35.219Z,100.00
2022-10-08T03:30:03.156Z,100.00
2022-10-08T03:32:31.589Z,99.95
2022-10-08T03:34:58.592Z,99.71
2022-10-08T03:37:25.531Z,99.42
2022-10-08T03:39:52.585Z,99.60
2022-10-08T03:42:19.744Z,99.43
2022-10-08T03:44:46.667Z,99.51
2022-10-08T03:47:13.636Z,99.27
2022-10-08T03:49:41.350Z,99.31
2022-10-08T03:52:08.337Z,99.29
2022-10-08T03:54:36.235Z,99.30
2022-10-08T03:57:03.613Z,99.15
2022-10-08T03:59:30.520Z,99.01
2022-10-08T04:01:57.517Z,98.98
2022-10-08T04:04:25.754Z,98.80
2022-10-08T04:06:53.012Z,98.87
2022-10-08T04:09:19.908Z,98.75
2022-10-08T04:11:46.923Z,98.61
2022-10-08T04:14:13.827Z,98.42
2022-10-08T04:16:40.794Z,98.22
2022-10-08T04:19:07.818Z,98.14
2022-10-08T04:21:34.752Z,98.36
2022-10-08T04:24:01.762Z,98.29
2022-10-08T04:26:28.922Z,98.11
2022-10-08T04:28:55.851Z,97.67
2022-10-08T04:31:23.594Z,97.54
2022-10-08T04:33:51.919Z,97.19
2022-10-08T04:36:22.193Z,97.13
2022-10-08T04:38:49.562Z,96.92
2022-10-08T04:41:22.532Z,96.80
2022-10-08T04:43:50.511Z,96.53
2022-10-08T04:46:19.352Z,96.64
2022-10-08T04:48:54.572Z,96.62
2022-10-08T04:51:23.513Z,96.38
2022-10-08T04:53:50.980Z,96.50
2022-10-08T04:56:25.687Z,96.38
2022-10-08T04:58:55.222Z,96.14
2022-10-08T05:01:26.061Z,96.00
2022-10-08T05:03:55.359Z,95.77
2022-10-08T05:06:26.783Z,95.88
2022-10-08T05:08:58.703Z,95.80
2022-10-08T05:11:26.989Z,95.56
2022-10-08T05:13:55.065Z,95.29
2022-10-08T05:16:22.810Z,95.19
2022-10-08T05:18:52.037Z,94.85
2022-10-08T05:21:24.626Z,94.32
2022-10-08T05:24:03.580Z,94.26
2022-10-08T05:27:08.562Z,94.13
2022-10-08T05:29:24.906Z,93.82
2022-10-08T05:31:52.610Z,93.84
2022-10-08T05:34:19.823Z,94.00
2022-10-08T05:36:46.724Z,93.47
2022-10-08T05:39:14.027Z,92.95
2022-10-08T05:41:43.780Z,92.35
2022-10-08T05:44:13.211Z,91.90
2022-10-08T05:46:41.032Z,91.61
2022-10-08T05:49:09.313Z,90.84
2022-10-08T05:51:36.569Z,90.95
2022-10-08T05:54:04.578Z,90.82
2022-10-08T05:56:31.950Z,90.32
2022-10-08T05:58:59.169Z,89.58
2022-10-08T06:01:28.698Z,89.11
2022-10-08T06:04:07.804Z,89.04
2022-10-08T06:06:37.284Z,88.46
2022-10-08T06:09:05.166Z,88.54
2022-10-08T06:11:34.610Z,88.61
2022-10-08T06:14:15.224Z,88.96
2022-10-08T06:16:43.434Z,89.15
2022-10-08T06:19:10.938Z,89.31
2022-10-08T06:21:38.101Z,89.71
2022-10-08T06:24:08.003Z,89.01
2022-10-08T06:26:38.496Z,87.86
2022-10-08T06:29:14.751Z,86.96
2022-10-08T06:31:42.454Z,86.45
2022-10-08T06:34:11.699Z,86.18
2022-10-08T06:36:39.176Z,85.54
2022-10-08T06:39:10.903Z,84.35
2022-10-08T06:41:38.805Z,83.42
2022-10-08T06:44:11.470Z,82.85
2022-10-08T06:46:38.539Z,81.79
2022-10-08T06:49:06.365Z,81.45
2022-10-08T06:51:34.419Z,80.07
2022-10-08T06:54:07.270Z,78.57
2022-10-08T06:56:39.030Z,77.07
2022-10-08T06:59:07.345Z,76.67
2022-10-08T07:01:35.539Z,75.52
2022-10-08T07:04:05.272Z,74.25
2022-10-08T07:06:32.680Z,72.86
2022-10-08T07:09:02.945Z,72.65
2022-10-08T07:11:32.260Z,72.34
2022-10-08T07:14:01.981Z,72.13
2022-10-08T07:16:35.222Z,71.13
2022-10-08T07:19:03.547Z,71.02
2022-10-08T07:21:31.138Z,70.20
2022-10-08T07:24:02.286Z,69.41
2022-10-08T07:26:32.867Z,68.71
2022-10-08T07:29:17.138Z,68.22
2022-10-08T07:31:44.481Z,67.99
2022-10-08T07:34:13.043Z,67.50
2022-10-08T07:36:41.112Z,65.51
2022-10-08T07:39:12.032Z,65.75
2022-10-08T07:41:41.704Z,64.98
2022-10-08T07:44:12.273Z,64.86
2022-10-08T07:46:44.082Z,63.64
2022-10-08T07:49:11.600Z,63.63
2022-10-08T07:51:39.512Z,62.16
2022-10-08T07:54:09.494Z,60.61
2022-10-08T07:56:36.879Z,60.29
2022-10-08T07:59:07.843Z,60.22
2022-10-08T08:01:37.965Z,58.53
2022-10-08T08:04:10.480Z,58.14
2022-10-08T08:06:45.582Z,58.12
2022-10-08T08:09:14.564Z,58.11
2022-10-08T08:11:41.704Z,56.24
2022-10-08T08:14:08.964Z,56.15
2022-10-08T08:16:36.130Z,58.94
2022-10-08T08:19:03.982Z,56.77
2022-10-08T08:21:34.031Z,56.40
2022-10-08T08:24:12.144Z,57.15
2022-10-08T08:26:41.366Z,55.84
2022-10-08T08:29:14.006Z,53.44
2022-10-08T08:31:46.271Z,52.26
2022-10-08T08:34:16.824Z,53.61
2022-10-08T08:36:46.190Z,54.86
2022-10-08T08:39:22.118Z,51.67
2022-10-08T08:42:02.291Z,50.53
2022-10-08T08:44:39.819Z,48.31
2022-10-08T08:47:06.792Z,47.11
2022-10-08T08:49:46.969Z,46.46
2022-10-08T08:52:16.615Z,46.55
2022-10-08T08:54:47.214Z,47.23
2022-10-08T08:57:37.141Z,48.37
2022-10-08T09:00:22.388Z,49.33
2022-10-08T09:03:04.295Z,51.71
2022-10-08T09:05:34.172Z,54.22
2022-10-08T09:08:05.853Z,52.52
2022-10-08T09:10:41.207Z,49.09
2022-10-08T09:13:16.144Z,47.79
2022-10-08T09:15:47.408Z,46.58
2022-10-08T09:18:15.508Z,45.57
2022-10-08T09:20:43.257Z,46.08
2022-10-08T09:23:30.360Z,46.04
2022-10-08T09:26:24.194Z,45.30
2022-10-08T09:28:56.580Z,45.52
2022-10-08T09:31:40.417Z,44.59
2022-10-08T09:34:10.228Z,43.76
2022-10-08T09:36:52.248Z,42.55
2022-10-08T09:39:24.266Z,41.48
2022-10-08T09:42:15.700Z,40.12
2022-10-08T09:44:52.630Z,40.56
2022-10-08T09:47:21.761Z,41.92
2022-10-08T09:50:21.545Z,41.17
2022-10-08T09:52:50.644Z,45.01
2022-10-08T09:55:22.784Z,45.94
2022-10-08T09:57:52.562Z,47.75
2022-10-08T10:00:30.529Z,49.24
2022-10-08T10:02:59.285Z,50.95
2022-10-08T10:05:31.716Z,47.65
2022-10-08T10:08:01.599Z,47.88
2022-10-08T10:10:45.267Z,47.12
2022-10-08T10:13:22.764Z,45.84
2022-10-08T10:15:59.024Z,41.94
2022-10-08T10:18:52.905Z,41.19
2022-10-08T10:21:48.696Z,40.30
2022-10-08T10:24:21.227Z,39.62
2022-10-08T10:26:50.054Z,37.83
2022-10-08T10:29:22.971Z,38.32
2022-10-08T10:31:54.899Z,38.16
2022-10-08T10:34:27.948Z,37.50
2022-10-08T10:37:01.243Z,37.38
2022-10-08T10:39:34.391Z,37.28
2022-10-08T10:42:08.477Z,37.39
2022-10-08T10:44:54.717Z,37.58
2022-10-08T10:47:31.828Z,37.93
2022-10-08T10:50:01.280Z,36.98
2022-10-08T10:52:43.278Z,36.05
2022-10-08T10:55:36.120Z,37.51
2022-10-08T10:58:14.147Z,38.97
2022-10-08T11:01:02.288Z,40.59
2022-10-08T11:03:38.156Z,39.35
2022-10-08T11:06:50.269Z,38.43
2022-10-08T11:09:35.788Z,37.25
2022-10-08T11:15:10.734Z,36.45
2022-10-08T11:17:52.269Z,37.51
2022-10-08T11:20:41.624Z,37.17
2022-10-08T11:23:39.076Z,34.76
2022-10-08T11:26:28.256Z,35.23
2022-10-08T11:29:11.369Z,37.48
2022-10-08T11:31:48.986Z,37.02
2022-10-08T11:34:32.378Z,36.56
2022-10-08T11:37:29.547Z,37.19
2022-10-08T11:40:19.817Z,36.11
2022-10-08T11:43:03.383Z,35.15
2022-10-08T11:45:40.035Z,37.55
2022-10-08T11:48:25.890Z,37.90
2022-10-08T11:51:24.109Z,36.20
2022-10-08T11:54:11.589Z,35.88
2022-10-08T11:56:46.736Z,35.00
2022-10-08T11:59:40.293Z,35.03
2022-10-08T12:02:26.560Z,36.12
2022-10-08T12:04:55.298Z,36.93
2022-10-08T12:07:24.582Z,37.66
2022-10-08T12:10:07.860Z,36.81
2022-10-08T12:12:50.495Z,35.45
2022-10-08T12:15:26.250Z,35.12
2022-10-08T12:17:59.470Z,36.14
2022-10-08T12:20:38.224Z,37.47
2022-10-08T12:23:34.540Z,38.07
2022-10-08T12:26:02.717Z,37.60
2022-10-08T12:28:32.977Z,36.66
2022-10-08T12:31:21.883Z,35.75
2022-10-08T12:34:21.984Z,34.58
2022-10-08T12:37:03.313Z,35.55
2022-10-08T12:39:37.641Z,35.65
2022-10-08T12:42:13.545Z,35.00
2022-10-08T12:45:26.277Z,34.70
2022-10-08T12:47:56.082Z,34.15
2022-10-08T12:50:39.754Z,34.34
2022-10-08T12:53:07.959Z,34.99
2022-10-08T12:55:52.216Z,34.61
2022-10-08T12:58:22.535Z,34.85
2022-10-08T13:00:56.119Z,35.54
2022-10-08T13:03:23.174Z,35.88
2022-10-08T13:05:50.315Z,38.60
2022-10-08T13:08:18.083Z,40.78
2022-10-08T13:10:45.131Z,40.57
2022-10-08T13:13:38.376Z,37.51
2022-10-08T13:16:17.864Z,37.68
2022-10-08T13:18:57.727Z,36.99
2022-10-08T13:21:37.122Z,36.16
2022-10-08T13:24:11.056Z,35.80
2022-10-08T13:26:41.242Z,36.08
2022-10-08T13:29:21.958Z,36.44
2022-10-08T13:31:56.796Z,36.98
2022-10-08T13:34:26.425Z,37.50
2022-10-08T13:36:58.054Z,38.99
2022-10-08T13:39:31.056Z,40.93
2022-10-08T13:42:00.357Z,43.40
2022-10-08T13:44:28.556Z,44.24
2022-10-08T13:46:58.937Z,44.77
2022-10-08T13:49:29.680Z,45.59
2022-10-08T13:51:58.797Z,46.13
2022-10-08T13:54:31.025Z,47.75
2022-10-08T13:56:58.331Z,48.68
2022-10-08T13:59:30.253Z,49.58
2022-10-08T14:01:58.985Z,50.46
2022-10-08T14:04:31.816Z,50.67
2022-10-08T14:06:59.674Z,51.20
2022-10-08T14:09:29.006Z,51.72
2022-10-08T14:11:59.434Z,52.02
2022-10-08T14:14:27.710Z,52.59
2022-10-08T14:16:54.754Z,52.62
2022-10-08T14:19:22.051Z,53.27
2022-10-08T14:21:50.953Z,53.61
2022-10-08T14:24:19.229Z,53.55
2022-10-08T14:26:46.144Z,54.02
2022-10-08T14:29:13.229Z,54.45
2022-10-08T14:31:40.322Z,54.69
2022-10-08T14:34:32.272Z,55.35
2022-10-08T14:37:00.095Z,56.07
2022-10-08T14:39:27.467Z,56.36
2022-10-08T14:41:55.391Z,56.57
2022-10-08T14:44:48.680Z,56.44
2022-10-08T14:47:16.857Z,57.06
2022-10-08T14:49:43.734Z,57.18
2022-10-08T14:52:10.907Z,57.49
2022-10-08T14:54:37.940Z,57.85
2022-10-08T14:57:04.980Z,58.06
2022-10-08T14:59:34.237Z,58.14
2022-10-08T15:02:03.310Z,58.42
2022-10-08T15:04:35.344Z,58.47
2022-10-08T15:07:02.271Z,58.66
2022-10-08T15:09:32.039Z,58.81
2022-10-08T15:11:58.913Z,59.21
2022-10-08T15:14:26.157Z,59.08
2022-10-08T15:16:54.213Z,59.46
2022-10-08T15:19:24.037Z,59.95
2022-10-08T15:21:51.860Z,59.89
2022-10-08T15:24:19.355Z,60.34
2022-10-08T15:26:49.322Z,60.62
2022-10-08T15:29:16.784Z,61.07
2022-10-08T15:31:44.192Z,61.37
2022-10-08T15:34:19.459Z,62.11
2022-10-08T15:36:50.074Z,62.02
2022-10-08T15:39:27.246Z,62.68
2022-10-08T15:41:55.608Z,62.61
2022-10-08T15:44:27.568Z,63.37
2022-10-08T15:47:16.203Z,63.71
2022-10-08T15:49:48.403Z,64.24
2022-10-08T15:52:33.408Z,64.93
2022-10-08T15:55:25.548Z,64.82
2022-10-08T15:57:52.738Z,65.51
2022-10-08T16:00:19.619Z,65.55
2022-10-08T16:02:47.047Z,66.21
2022-10-08T16:05:15.100Z,66.02
2022-10-08T16:07:42.495Z,66.12
2022-10-08T16:10:09.481Z,66.39
2022-10-08T16:12:37.898Z,66.58
2022-10-08T16:15:05.970Z,66.72
2022-10-08T16:17:52.951Z,67.12
2022-10-08T16:20:19.945Z,67.51
2022-10-08T16:22:47.009Z,67.80
2022-10-08T16:25:19.422Z,67.91
2022-10-08T16:27:47.676Z,67.98
2022-10-08T16:33:00.764Z,67.89
2022-10-08T16:35:28.836Z,68.19
2022-10-08T16:37:55.737Z,68.14
2022-10-08T16:40:22.627Z,68.25
2022-10-08T16:42:50.183Z,68.11
2022-10-08T16:45:17.473Z,68.32
2022-10-08T16:47:44.392Z,68.14
2022-10-08T16:50:11.615Z,68.64
2022-10-08T16:52:38.493Z,68.76
2022-10-08T16:55:05.734Z,68.91
2022-10-08T16:57:33.872Z,69.41
2022-10-08T17:00:00.846Z,69.65
2022-10-08T17:02:27.979Z,69.98
2022-10-08T17:04:55.022Z,70.16
2022-10-08T17:07:24.920Z,70.24
2022-10-08T17:09:54.351Z,70.46
2022-10-08T17:12:22.056Z,70.56
2022-10-08T17:14:49.105Z,70.68
2022-10-08T17:17:17.095Z,70.97
2022-10-08T17:19:44.921Z,71.40
2022-10-08T17:22:13.208Z,71.39
2022-10-08T17:24:42.381Z,71.52
2022-10-08T17:27:09.549Z,72.24
2022-10-08T17:29:36.858Z,72.11
2022-10-08T17:32:06.464Z,72.21
2022-10-08T17:37:21.768Z,72.76
2022-10-08T17:39:48.731Z,73.12
2022-10-08T17:42:15.688Z,73.57
2022-10-08T17:44:43.344Z,73.93
2022-10-08T17:47:10.345Z,74.13
2022-10-08T17:49:37.234Z,74.56
2022-10-08T17:52:04.239Z,74.90
2022-10-08T17:54:31.283Z,75.25
2022-10-08T17:57:00.617Z,75.15
2022-10-08T17:59:30.194Z,75.17
2022-10-08T18:02:03.210Z,75.25
2022-10-08T18:04:30.451Z,75.60
2022-10-08T18:07:02.504Z,75.70
2022-10-08T18:09:30.262Z,75.76
2022-10-08T18:12:00.168Z,76.01
2022-10-08T18:14:27.039Z,76.13
2022-10-08T18:16:53.969Z,76.35
2022-10-08T18:19:21.689Z,76.74
2022-10-08T18:21:48.737Z,76.50
2022-10-08T18:24:18.460Z,76.71
2022-10-08T18:26:48.315Z,76.90
2022-10-08T18:29:15.730Z,77.07
2022-10-08T18:31:44.089Z,77.18
2022-10-08T18:34:17.065Z,77.53
2022-10-08T18:36:44.556Z,77.51
2022-10-08T18:39:14.171Z,77.76
2022-10-08T18:41:43.619Z,78.11
2022-10-08T18:44:13.118Z,78.29
2022-10-08T18:46:40.131Z,78.18
2022-10-08T18:49:07.445Z,78.42
2022-10-08T18:51:35.767Z,78.42
2022-10-08T18:54:02.719Z,78.57
2022-10-08T18:56:31.664Z,78.82
2022-10-08T18:59:01.873Z,78.81
2022-10-08T19:01:36.532Z,79.05
2022-10-08T19:04:10.417Z,79.03
2022-10-08T19:09:20.899Z,79.95
2022-10-08T19:11:50.364Z,80.17
2022-10-08T19:14:19.923Z,80.55
2022-10-08T19:16:48.017Z,80.78
2022-10-08T19:19:20.240Z,81.35
2022-10-08T19:21:48.363Z,81.72
2022-10-08T19:24:18.508Z,81.66
2022-10-08T19:26:46.905Z,81.95
2022-10-08T19:29:16.531Z,82.05
2022-10-08T19:31:47.665Z,82.08
2022-10-08T19:34:17.042Z,81.92
2022-10-08T19:36:44.297Z,82.04
2022-10-08T19:39:16.632Z,82.55
2022-10-08T19:41:45.129Z,82.56
2022-10-08T19:44:19.431Z,82.62
2022-10-08T19:46:46.904Z,82.39
2022-10-08T19:49:14.563Z,82.56
2022-10-08T19:51:41.790Z,82.46
2022-10-08T19:54:33.940Z,82.46
2022-10-08T19:57:03.179Z,82.54
2022-10-08T19:59:38.266Z,82.60
2022-10-08T20:02:05.428Z,82.77
2022-10-08T20:04:33.903Z,82.84
2022-10-08T20:07:16.065Z,83.16
2022-10-08T20:09:45.607Z,83.52
2022-10-08T20:12:12.419Z,83.70
2022-10-08T20:14:39.651Z,83.72
2022-10-08T20:17:06.691Z,84.20
2022-10-08T20:19:33.687Z,84.33
2022-10-08T20:22:00.566Z,84.33
2022-10-08T20:24:27.635Z,84.84
2022-10-08T20:26:54.635Z,84.47
2022-10-08T20:29:28.689Z,84.96
2022-10-08T20:31:58.308Z,85.26
2022-10-08T20:34:50.189Z,85.65
2022-10-08T20:37:20.032Z,85.73
2022-10-08T20:39:48.259Z,85.89
2022-10-08T20:42:15.149Z,85.96
2022-10-08T20:44:42.034Z,86.00
2022-10-08T20:47:09.467Z,86.13
2022-10-08T20:49:36.356Z,86.11
2022-10-08T20:52:04.324Z,86.29
2022-10-08T20:54:31.352Z,86.41
2022-10-08T20:56:58.940Z,86.42
2022-10-08T20:59:25.985Z,86.71
2022-10-08T21:01:52.990Z,86.76
2022-10-08T21:04:21.025Z,87.01
2022-10-08T21:06:50.097Z,86.97
2022-10-08T21:09:21.434Z,87.12
2022-10-08T21:11:48.935Z,87.24
2022-10-08T21:14:18.542Z,87.49
2022-10-08T21:16:45.960Z,87.52
2022-10-08T21:19:15.412Z,87.83
2022-10-08T21:21:42.653Z,87.80
2022-10-08T21:24:09.795Z,87.89
2022-10-08T21:26:41.396Z,88.22
2022-10-08T21:29:11.201Z,88.43
2022-10-08T21:31:39.685Z,88.13
2022-10-08T21:34:07.299Z,88.73
2022-10-08T21:36:37.607Z,88.84
2022-10-08T21:39:06.912Z,88.78
2022-10-08T21:41:36.203Z,88.76
2022-10-08T21:44:09.257Z,88.61
2022-10-08T21:46:39.100Z,88.84
2022-10-08T21:49:10.820Z,88.90
2022-10-08T21:51:38.022Z,89.13
2022-10-08T21:54:06.845Z,89.27
2022-10-08T21:56:36.018Z,89.36
2022-10-08T21:59:05.177Z,89.48
2022-10-08T22:01:42.247Z,89.81
2022-10-08T22:04:21.861Z,90.14
2022-10-08T22:06:52.255Z,90.58
2022-10-08T22:09:24.256Z,90.73
2022-10-08T22:11:52.427Z,90.95
2022-10-08T22:14:19.977Z,90.90
2022-10-08T22:16:47.545Z,91.05
2022-10-08T22:19:15.677Z,91.27
2022-10-08T22:21:42.884Z,91.69
2022-10-08T22:24:14.915Z,91.86
2022-10-08T22:26:45.054Z,92.10
2022-10-08T22:29:12.617Z,92.61
2022-10-08T22:31:42.401Z,93.20
2022-10-08T22:34:09.424Z,93.30
2022-10-08T22:36:40.007Z,93.29
2022-10-08T22:39:07.322Z,93.68
2022-10-08T22:41:34.764Z,93.70
2022-10-08T22:44:03.720Z,93.48
2022-10-08T22:46:34.963Z,93.65
2022-10-08T22:49:06.666Z,93.99
2022-10-08T22:51:34.040Z,94.04
2022-10-08T22:54:00.977Z,94.13
2022-10-08T22:56:29.672Z,94.04
2022-10-08T22:58:58.897Z,94.29
2022-10-08T23:01:26.779Z,94.60
2022-10-08T23:03:54.149Z,94.63
2022-10-08T23:06:26.622Z,94.53
2022-10-08T23:09:01.287Z,94.63
2022-10-08T23:11:28.452Z,94.79
2022-10-08T23:13:57.938Z,94.54
2022-10-08T23:16:26.415Z,94.65
2022-10-08T23:19:05.429Z,95.03
2022-10-08T23:21:34.142Z,95.10
2022-10-08T23:24:01.391Z,95.46
2022-10-08T23:26:28.714Z,95.21
2022-10-08T23:28:58.412Z,95.27
2022-10-08T23:31:27.974Z,95.22
2022-10-08T23:33:56.518Z,95.36
2022-10-08T23:36:26.887Z,95.77
2022-10-08T23:38:56.770Z,95.50
2022-10-08T23:41:24.900Z,95.52
2022-10-08T23:43:53.007Z,96.16
2022-10-08T23:46:22.329Z,96.06
2022-10-08T23:48:49.775Z,96.29
2022-10-08T23:51:19.029Z,96.18
2022-10-08T23:53:47.378Z,96.06
2022-10-08T23:56:14.681Z,96.31
2022-10-08T23:58:42.093Z,96.64
